Bookmark and Share
Track history (hours):
 

Nichiryu Maru

Last reported at 2014-Apr-20 23:33 UTC. Time now 2014-Apr-20 23:47 UTC.
Position N 35°19' E 139°39'.

Length 158 m; draft 6.5 m.

Type: Cargo ship. MMSI: 43100939.

NotesDate/timePositionNaut miles runAvg speedWind from/ knotsBaromVisibWave heightAir tempDewpointWater temp
2014-Apr-20 23:33N 35°19' E 139°39'2 1.9
2014-Apr-20 22:34N 35°19' E 139°41'1312.7
2014-Apr-20 21:34N 35°07' E 139°46'1918.6
2014-Apr-20 20:33N 34°55' E 139°29'22814.2
2014-Apr-20 04:33N 34°06' E 134°59'1817.8
2014-Apr-20 03:33N 34°24' E 135°03'1717.4
2014-Apr-20 02:33N 34°38' E 135°16'4 3.6
2014-Apr-20 01:33N 34°41' E 135°13'0 0.0
2014-Apr-20 00:26N 34°41' E 135°13'0 0.0
2014-Apr-19 23:33N 34°41' E 135°13'0 0.0
2014-Apr-19 22:33N 34°41' E 135°13'6 6.1
2014-Apr-19 21:33N 34°35' E 135°12'2019.2
2014-Apr-19 20:32N 34°32' E 134°48'3 0.1
2014-Apr-18 08:24N 34°35' E 134°50'1416.1
2014-Apr-18 07:33N 34°36' E 135°06'7 7.5
2014-Apr-18 06:33N 34°41' E 135°13'0 0.0
2014-Apr-18 05:33N 34°41' E 135°13'0 0.0
2014-Apr-18 04:28N 34°41' E 135°13'1 0.6
2014-Apr-18 03:33N 34°41' E 135°14'1515.1
2014-Apr-18 02:33N 34°26' E 135°08'1717.1
2014-Apr-18 01:33N 34°11' E 134°60'17515.5
2014-Apr-17 14:18N 34°28' E 138°30'5118.5
2014-Apr-17 11:32N 34°54' E 139°24'1919.7
2014-Apr-17 10:33N 35°06' E 139°42'1312.6
2014-Apr-17 09:33N 35°19' E 139°42'2 2.1
2014-Apr-17 08:28N 35°19' E 139°39'0 0.0
2014-Apr-17 07:28N 35°19' E 139°39'0 0.0
2014-Apr-17 06:31N 35°19' E 139°39'0 0.0
2014-Apr-17 05:31N 35°19' E 139°39'0 0.0
2014-Apr-17 04:33N 35°19' E 139°39'0 0.3
2014-Apr-17 03:33N 35°19' E 139°39'1211.6
2014-Apr-17 02:33N 35°09' E 139°46'1818.0
2014-Apr-17 01:33N 34°56' E 139°30'31119.0
2014-Apr-16 09:14N 32°53' E 133°46'1522.5
2014-Apr-16 08:33N 32°47' E 133°30'2020.5
2014-Apr-16 07:33N 32°41' E 133°06'4218.6
2014-Apr-16 05:18N 32°55' E 132°19'13 0.7
2014-Apr-15 10:34N 32°44' E 132°27'38015.8
2014-Apr-14 10:33N 35°01' E 139°34'1616.3
2014-Apr-14 09:34N 35°14' E 139°46'8 7.8
2014-Apr-14 08:34N 35°19' E 139°39'0 0.0
2014-Apr-14 07:33N 35°19' E 139°39'0 0.0
2014-Apr-14 05:32N 35°19' E 139°39'5 0.6
2014-Apr-13 22:33N 35°18' E 139°44'1414.0
2014-Apr-13 21:33N 35°04' E 139°42'1818.1
2014-Apr-13 20:34N 34°53' E 139°26'22715.1
2014-Apr-13 05:28N 33°55' E 134°59'1819.7
2014-Apr-13 04:33N 34°13' E 134°58'2020.2
2014-Apr-13 03:33N 34°30' E 135°11'1110.9
2014-Apr-13 02:33N 34°41' E 135°13'0 0.0
2014-Apr-13 01:33N 34°41' E 135°13'0 0.0
2014-Apr-13 00:25N 34°41' E 135°13'0 0.0
2014-Apr-12 23:24N 34°41' E 135°13'0 0.0
2014-Apr-12 22:33N 34°41' E 135°13'7 6.8
2014-Apr-12 21:33N 34°35' E 135°09'1514.6
2014-Apr-12 20:33N 34°34' E 134°52'6 0.2
2014-Apr-11 08:33N 34°37' E 134°58'1515.0
2014-Apr-11 07:33N 34°39' E 135°16'2 2.4
2014-Apr-11 06:33N 34°41' E 135°13'0 0.0
2014-Apr-11 05:27N 34°41' E 135°13'0 0.1
2014-Apr-11 04:33N 34°41' E 135°14'6 5.6
2014-Apr-11 03:33N 34°35' E 135°15'1312.9
2014-Apr-11 02:33N 34°25' E 135°06'1616.3
2014-Apr-11 01:33N 34°09' E 134°60'  

Dump ship's entire track history

sailing weather and tide predictions

Nichiryu Maru — JG5632 — position and weather